createdAt,value
2018-05-28T00:01:31.742Z,4.10
2018-05-28T00:03:59.240Z,4.30
2018-05-28T00:06:27.611Z,3.90
2018-05-28T00:08:55.867Z,4.80
2018-05-28T00:11:23.439Z,4.00
2018-05-28T00:13:51.717Z,4.00
2018-05-28T00:16:19.962Z,4.50
2018-05-28T00:18:47.452Z,4.17
2018-05-28T00:21:15.975Z,3.73
2018-05-28T00:23:43.491Z,4.00
2018-05-28T00:26:11.739Z,4.30
2018-05-28T00:28:39.228Z,4.00
2018-05-28T00:31:07.469Z,4.80
2018-05-28T00:33:35.204Z,4.30
2018-05-28T00:36:02.683Z,3.43
2018-05-28T00:38:30.523Z,4.77
2018-05-28T00:40:58.040Z,4.60
2018-05-28T00:43:26.295Z,4.90
2018-05-28T00:45:53.768Z,4.00
2018-05-28T00:48:22.048Z,4.30
2018-05-28T00:50:50.341Z,3.77
2018-05-28T00:53:18.596Z,3.20
2018-05-28T00:55:51.071Z,4.70
2018-05-28T00:58:19.600Z,4.53
2018-05-28T01:00:47.080Z,3.63
2018-05-28T01:03:14.825Z,3.77
2018-05-28T01:05:42.584Z,4.00
2018-05-28T01:08:10.348Z,4.17
2018-05-28T01:10:38.043Z,4.90
2018-05-28T01:13:05.628Z,4.20
2018-05-28T01:15:33.869Z,4.60
2018-05-28T01:18:01.355Z,4.10
2018-05-28T01:20:29.714Z,4.10
2018-05-28T01:22:57.210Z,3.70
2018-05-28T01:25:24.685Z,3.80
2018-05-28T01:27:52.585Z,3.60
2018-05-28T01:30:20.056Z,3.10
2018-05-28T01:32:47.637Z,5.27
2018-05-28T01:35:15.880Z,2.50
2018-05-28T01:37:43.375Z,3.10
2018-05-28T01:40:12.333Z,4.43
2018-05-28T01:42:41.332Z,5.00
2018-05-28T01:45:08.816Z,5.40
2018-05-28T01:47:37.072Z,3.43
2018-05-28T01:50:04.639Z,3.73
2018-05-28T01:52:32.916Z,4.60
2018-05-28T01:55:01.233Z,4.00
2018-05-28T01:57:28.727Z,4.23
2018-05-28T01:59:56.213Z,4.27
2018-05-28T02:02:24.471Z,4.67
2018-05-28T02:04:52.191Z,4.20
2018-05-28T02:07:19.683Z,3.93
2018-05-28T02:09:47.161Z,3.77
2018-05-28T02:12:15.439Z,5.00
2018-05-28T02:14:43.683Z,4.20
2018-05-28T02:17:11.176Z,4.10
2018-05-28T02:19:39.412Z,4.17
2018-05-28T02:22:06.908Z,3.80
2018-05-28T02:24:35.432Z,4.20
2018-05-28T02:27:02.912Z,3.30
2018-05-28T02:29:30.412Z,3.23
2018-05-28T02:31:58.653Z,4.50
2018-05-28T02:34:26.127Z,3.87
2018-05-28T02:36:53.624Z,3.60
2018-05-28T02:39:21.104Z,3.83
2018-05-28T02:41:48.579Z,3.90
2018-05-28T02:44:16.312Z,3.90
2018-05-28T02:46:44.076Z,5.37
2018-05-28T02:49:11.555Z,4.40
2018-05-28T02:51:39.047Z,3.73
2018-05-28T02:54:07.319Z,4.13
2018-05-28T02:56:36.284Z,3.70
2018-05-28T02:59:04.182Z,4.30
2018-05-28T03:01:33.047Z,5.20
2018-05-28T03:04:00.524Z,4.10
2018-05-28T03:06:28.802Z,4.23
2018-05-28T03:08:57.055Z,4.40
2018-05-28T03:11:24.537Z,4.70
2018-05-28T03:13:53.164Z,4.10
2018-05-28T03:16:20.640Z,4.20
2018-05-28T03:18:48.113Z,4.10
2018-05-28T03:21:15.608Z,3.67
2018-05-28T03:23:43.084Z,3.90
2018-05-28T03:26:10.608Z,5.57
2018-05-28T03:28:38.860Z,4.00
2018-05-28T03:31:06.444Z,3.83
2018-05-28T03:33:34.711Z,4.10
2018-05-28T03:36:02.276Z,4.23
2018-05-28T03:38:30.524Z,3.80
2018-05-28T03:40:58.260Z,5.00
2018-05-28T03:43:25.772Z,3.77
2018-05-28T03:45:54.047Z,3.10
2018-05-28T03:48:22.328Z,4.20
2018-05-28T03:50:50.631Z,2.80
2018-05-28T03:53:18.324Z,4.27
2018-05-28T03:55:45.818Z,4.10
2018-05-28T03:58:14.343Z,4.10
2018-05-28T04:00:53.832Z,3.50
2018-05-28T04:03:33.351Z,4.20
2018-05-28T04:06:05.547Z,3.90
2018-05-28T04:08:33.788Z,3.17
2018-05-28T04:11:01.500Z,4.27
2018-05-28T04:13:30.008Z,4.33
2018-05-28T04:15:57.773Z,2.97
2018-05-28T04:18:25.251Z,3.07
2018-05-28T04:20:52.751Z,3.23
2018-05-28T04:23:21.020Z,3.93
2018-05-28T04:25:49.267Z,5.57
2018-05-28T04:28:16.759Z,3.03
2018-05-28T04:30:45.005Z,4.60
2018-05-28T04:33:12.739Z,4.60
2018-05-28T04:35:40.239Z,4.47
2018-05-28T04:38:08.345Z,3.93
2018-05-28T04:40:36.129Z,4.50
2018-05-28T04:43:04.000Z,5.60
2018-05-28T04:45:31.479Z,3.63
2018-05-28T04:47:58.955Z,4.63
2018-05-28T04:50:27.959Z,4.37
2018-05-28T04:52:56.208Z,3.57
2018-05-28T04:55:24.351Z,6.30
2018-05-28T04:57:51.848Z,5.03
2018-05-28T05:00:20.088Z,4.93
2018-05-28T05:02:47.847Z,5.60
2018-05-28T05:05:15.359Z,5.07
2018-05-28T05:07:43.599Z,4.00
2018-05-28T05:10:11.073Z,4.30
2018-05-28T05:12:38.903Z,4.60
2018-05-28T05:15:06.376Z,3.87
2018-05-28T05:17:33.855Z,4.30
2018-05-28T05:20:01.357Z,3.70
2018-05-28T05:22:28.894Z,4.40
2018-05-28T05:24:57.145Z,3.60
2018-05-28T05:27:24.639Z,4.50
2018-05-28T05:29:52.428Z,4.70
2018-05-28T05:32:19.907Z,3.33
2018-05-28T05:34:47.399Z,4.60
2018-05-28T05:37:15.672Z,3.70
2018-05-28T05:39:43.144Z,4.53
2018-05-28T05:42:11.413Z,4.50
2018-05-28T05:44:39.659Z,3.90
2018-05-28T05:47:07.393Z,3.73
2018-05-28T05:49:35.828Z,4.53
2018-05-28T05:52:04.079Z,4.20
2018-05-28T05:54:31.880Z,4.80
2018-05-28T05:56:59.428Z,3.90
2018-05-28T05:59:27.683Z,3.63
2018-05-28T06:01:55.159Z,4.50
2018-05-28T06:04:23.431Z,3.93
2018-05-28T06:06:51.676Z,4.90
2018-05-28T06:09:19.151Z,4.63
2018-05-28T06:11:46.724Z,3.87
2018-05-28T06:14:14.964Z,4.73
2018-05-28T06:16:43.203Z,3.77
2018-05-28T06:19:10.764Z,4.73
2018-05-28T06:21:38.545Z,4.80
2018-05-28T06:24:06.303Z,4.60
2018-05-28T06:26:33.799Z,4.43
2018-05-28T06:29:01.279Z,4.20
2018-05-28T06:31:29.807Z,4.50
2018-05-28T06:33:57.308Z,4.00
2018-05-28T06:36:24.788Z,4.30
2018-05-28T06:38:53.028Z,4.53
2018-05-28T06:41:20.608Z,3.83
2018-05-28T06:43:49.136Z,5.00
2018-05-28T06:46:16.615Z,5.20
2018-05-28T06:48:44.213Z,4.27
2018-05-28T06:51:12.735Z,3.90
2018-05-28T06:53:40.243Z,4.30
2018-05-28T06:56:08.507Z,4.00
2018-05-28T06:58:36.024Z,3.60
2018-05-28T07:01:03.504Z,4.10
2018-05-28T07:03:31.243Z,4.17
2018-05-28T07:05:59.008Z,4.17
2018-05-28T07:08:26.484Z,4.23
2018-05-28T07:10:53.980Z,4.67
2018-05-28T07:13:22.223Z,4.60
2018-05-28T07:15:49.696Z,4.07
2018-05-28T07:18:17.370Z,3.67
2018-05-28T07:20:45.660Z,4.30
2018-05-28T07:23:14.183Z,4.43
2018-05-28T07:25:41.675Z,3.93
2018-05-28T07:28:09.167Z,4.43
2018-05-28T07:30:36.703Z,4.80
2018-05-28T07:33:05.228Z,4.57
2018-05-28T07:35:32.702Z,5.30
2018-05-28T07:38:00.204Z,5.03
2018-05-28T07:40:28.452Z,4.33
2018-05-28T07:42:56.144Z,5.20
2018-05-28T07:45:24.664Z,4.33
2018-05-28T07:47:52.148Z,4.83
2018-05-28T07:50:19.680Z,3.97
2018-05-28T07:52:47.157Z,3.80
2018-05-28T07:55:14.631Z,4.33
2018-05-28T07:57:42.462Z,3.60
2018-05-28T08:00:09.940Z,3.90
2018-05-28T08:02:37.679Z,3.63
2018-05-28T08:05:05.443Z,4.30
2018-05-28T08:07:32.961Z,4.43
2018-05-28T08:10:01.433Z,4.10
2018-05-28T08:12:29.696Z,4.70
2018-05-28T08:14:57.175Z,4.00
2018-05-28T08:17:25.420Z,4.30
2018-05-28T08:19:53.008Z,4.17
2018-05-28T08:22:21.252Z,4.70
2018-05-28T08:24:48.736Z,3.73
2018-05-28T08:27:17.000Z,4.20
2018-05-28T08:29:44.472Z,4.40
2018-05-28T08:32:12.716Z,4.13
2018-05-28T08:34:41.894Z,4.67
2018-05-28T08:37:09.648Z,4.47
2018-05-28T08:39:37.119Z,4.40
2018-05-28T08:42:04.869Z,4.37
2018-05-28T08:44:32.384Z,4.40
2018-05-28T08:47:00.643Z,3.80
2018-05-28T08:49:28.238Z,4.00
2018-05-28T08:51:56.477Z,4.27
2018-05-28T08:54:24.056Z,4.40
2018-05-28T08:56:52.327Z,4.10
2018-05-28T08:59:20.604Z,5.07
2018-05-28T09:01:49.133Z,3.77
2018-05-28T09:04:16.632Z,4.27
2018-05-28T09:06:45.376Z,3.70
2018-05-28T09:09:12.859Z,4.13
2018-05-28T09:11:40.348Z,4.00
2018-05-28T09:14:08.591Z,3.40
2018-05-28T09:16:36.119Z,3.30
2018-05-28T09:19:03.639Z,3.30
2018-05-28T09:21:31.927Z,3.80
2018-05-28T09:24:00.436Z,3.53
2018-05-28T09:26:27.913Z,3.53
2018-05-28T09:28:55.387Z,6.87
2018-05-28T09:31:22.880Z,4.20
2018-05-28T09:33:50.680Z,5.93
2018-05-28T09:36:18.540Z,3.53
2018-05-28T09:38:46.035Z,3.00
2018-05-28T09:41:13.509Z,3.80
2018-05-28T09:43:41.752Z,4.00
2018-05-28T09:46:09.347Z,2.80
2018-05-28T09:48:37.592Z,3.10
2018-05-28T09:51:05.068Z,3.10
2018-05-28T09:53:32.893Z,3.30
2018-05-28T09:56:00.372Z,3.67
2018-05-28T09:58:27.843Z,3.70
2018-05-28T10:00:55.339Z,3.67
2018-05-28T10:03:22.880Z,3.60
2018-05-28T10:05:51.181Z,3.43
2018-05-28T10:08:18.632Z,2.90
2018-05-28T10:10:46.107Z,3.37
2018-05-28T10:13:13.872Z,3.17
2018-05-28T10:15:41.384Z,2.97
2018-05-28T10:18:09.632Z,2.73
2018-05-28T10:20:37.131Z,3.20
2018-05-28T10:23:04.616Z,3.00
2018-05-28T10:25:32.089Z,2.67
2018-05-28T10:27:59.839Z,3.20
2018-05-28T10:30:27.323Z,2.70
2018-05-28T10:32:54.796Z,3.63
2018-05-28T10:35:22.287Z,2.13
2018-05-28T10:37:49.763Z,2.70
2018-05-28T10:40:17.264Z,2.40
2018-05-28T10:42:44.987Z,3.17
2018-05-28T10:45:12.469Z,2.90
2018-05-28T10:47:39.977Z,2.83
2018-05-28T10:50:07.454Z,3.00
2018-05-28T10:52:34.948Z,2.60
2018-05-28T10:55:02.532Z,3.30
2018-05-28T10:57:30.812Z,3.10
2018-05-28T10:59:59.084Z,2.70
2018-05-28T11:02:27.352Z,2.63
2018-05-28T11:04:54.919Z,2.77
2018-05-28T11:07:23.196Z,3.13
2018-05-28T11:09:51.456Z,2.73
2018-05-28T11:12:19.279Z,3.43
2018-05-28T11:14:47.044Z,3.07
2018-05-28T11:17:14.807Z,2.77
2018-05-28T11:19:42.572Z,2.17
2018-05-28T11:22:10.056Z,2.50
2018-05-28T11:24:38.370Z,2.13
2018-05-28T11:27:05.819Z,2.07
2018-05-28T11:29:34.059Z,2.97
2018-05-28T11:32:01.558Z,2.73
2018-05-28T11:34:29.804Z,2.87
2018-05-28T11:36:57.283Z,2.70
2018-05-28T11:39:25.560Z,2.60
2018-05-28T11:41:53.836Z,2.53
2018-05-28T11:44:22.112Z,2.70
2018-05-28T11:46:50.636Z,3.00
2018-05-28T11:49:18.151Z,2.77
2018-05-28T11:51:46.416Z,1.93
2018-05-28T11:54:13.900Z,2.70
2018-05-28T11:56:41.380Z,2.23
2018-05-28T11:59:08.872Z,2.60
2018-05-28T12:01:36.346Z,1.80
2018-05-28T12:04:04.164Z,1.57
2018-05-28T12:06:31.927Z,2.07
2018-05-28T12:08:59.443Z,2.37
2018-05-28T12:11:27.708Z,2.83
2018-05-28T12:13:55.524Z,3.17
2018-05-28T12:16:23.000Z,3.40
2018-05-28T12:18:50.487Z,3.07
2018-05-28T12:21:17.967Z,2.20
2018-05-28T12:23:46.224Z,2.30
2018-05-28T12:26:13.700Z,1.87
2018-05-28T12:28:41.176Z,1.90
2018-05-28T12:31:08.704Z,2.37
2018-05-28T12:33:36.990Z,2.00
2018-05-28T12:36:04.436Z,2.10
2018-05-28T12:38:32.695Z,2.37
2018-05-28T12:41:00.171Z,2.20
2018-05-28T12:43:28.431Z,2.30
2018-05-28T12:45:55.910Z,2.23
2018-05-28T12:48:23.405Z,1.97
2018-05-28T12:50:50.903Z,2.13
2018-05-28T12:53:18.408Z,2.53
2018-05-28T12:55:46.180Z,2.27
2018-05-28T12:58:13.668Z,1.60
2018-05-28T13:00:41.139Z,2.47
2018-05-28T13:03:08.956Z,1.90
2018-05-28T13:05:36.438Z,1.80
2018-05-28T13:08:03.928Z,2.10
2018-05-28T13:10:32.192Z,1.50
2018-05-28T13:12:59.910Z,1.83
2018-05-28T13:15:27.427Z,2.40
2018-05-28T13:17:55.808Z,1.70
2018-05-28T13:20:24.056Z,2.63
2018-05-28T13:22:51.552Z,2.40
2018-05-28T13:25:19.092Z,2.47
2018-05-28T13:27:47.340Z,1.70
2018-05-28T13:30:14.832Z,1.90
2018-05-28T13:32:43.352Z,2.03
2018-05-28T13:35:10.828Z,1.93
2018-05-28T13:37:38.319Z,2.30
2018-05-28T13:40:06.601Z,2.77
2018-05-28T13:42:34.844Z,2.27
2018-05-28T13:45:02.344Z,2.77
2018-05-28T13:47:30.585Z,2.37
2018-05-28T13:49:58.060Z,1.97
2018-05-28T13:52:26.328Z,1.80
2018-05-28T13:54:55.328Z,2.33
2018-05-28T13:57:23.576Z,2.17
2018-05-28T13:59:51.133Z,2.73
2018-05-28T14:02:18.578Z,2.60
2018-05-28T14:04:46.060Z,1.83
2018-05-28T14:07:13.548Z,1.77
2018-05-28T14:09:41.820Z,2.13
2018-05-28T14:12:10.092Z,1.67
2018-05-28T14:14:38.343Z,1.83
2018-05-28T14:17:05.820Z,1.90
2018-05-28T14:19:34.080Z,2.93
2018-05-28T14:22:02.332Z,2.20
2018-05-28T14:24:29.871Z,1.73
2018-05-28T14:26:57.401Z,2.07
2018-05-28T14:29:25.913Z,1.60
2018-05-28T14:31:53.411Z,2.27
2018-05-28T14:34:21.707Z,2.60
2018-05-28T14:36:51.217Z,2.17
2018-05-28T14:39:19.068Z,1.87
2018-05-28T14:41:47.903Z,2.23
2018-05-28T14:44:15.452Z,2.27
2018-05-28T14:46:42.987Z,1.90
2018-05-28T14:49:11.230Z,1.60
2018-05-28T14:51:39.064Z,1.90
2018-05-28T14:54:06.828Z,3.03
2018-05-28T14:56:34.316Z,2.57
2018-05-28T14:59:01.901Z,2.90
2018-05-28T15:01:30.424Z,1.70
2018-05-28T15:03:57.904Z,2.10
2018-05-28T15:06:25.396Z,2.43
2018-05-28T15:08:53.671Z,2.27
2018-05-28T15:11:21.934Z,2.23
2018-05-28T15:13:50.920Z,2.53
2018-05-28T15:16:18.397Z,2.57
2018-05-28T15:18:46.681Z,2.30
2018-05-28T15:21:15.097Z,2.13
2018-05-28T15:23:42.608Z,2.60
2018-05-28T15:26:11.135Z,2.50
2018-05-28T15:28:38.811Z,2.50
2018-05-28T15:31:06.288Z,2.40
2018-05-28T15:33:34.120Z,2.50
2018-05-28T15:36:01.593Z,2.17
2018-05-28T15:38:29.072Z,1.83
2018-05-28T15:40:57.617Z,2.30
2018-05-28T15:43:25.095Z,2.20
2018-05-28T15:45:52.835Z,1.87
2018-05-28T15:48:20.330Z,2.03
2018-05-28T15:50:47.842Z,1.83
2018-05-28T15:53:15.465Z,1.83
2018-05-28T15:55:43.707Z,2.63
2018-05-28T15:58:11.203Z,1.77
2018-05-28T16:00:39.475Z,1.70
2018-05-28T16:03:07.752Z,1.70
2018-05-28T16:05:36.016Z,2.20
2018-05-28T16:08:03.487Z,2.50
2018-05-28T16:10:31.728Z,2.80
2018-05-28T16:12:59.716Z,2.23
2018-05-28T16:15:27.457Z,1.90
2018-05-28T16:17:55.119Z,2.00
2018-05-28T16:20:23.686Z,2.20
2018-05-28T16:22:51.434Z,2.00
2018-05-28T16:25:19.711Z,1.40
2018-05-28T16:27:47.243Z,1.50
2018-05-28T16:30:15.755Z,1.70
2018-05-28T16:32:43.228Z,1.73
2018-05-28T16:35:10.724Z,2.03
2018-05-28T16:37:38.971Z,1.90
2018-05-28T16:40:06.451Z,2.23
2018-05-28T16:42:34.716Z,2.83
2018-05-28T16:45:02.211Z,2.20
2018-05-28T16:47:29.755Z,2.50
2018-05-28T16:49:57.999Z,1.87
2018-05-28T16:52:25.511Z,2.27
2018-05-28T16:54:53.000Z,2.80
2018-05-28T16:57:20.512Z,3.23
2018-05-28T16:59:49.024Z,2.40
2018-05-28T17:02:16.520Z,2.10
2018-05-28T17:04:44.099Z,1.80
2018-05-28T17:07:12.355Z,3.17
2018-05-28T17:09:40.077Z,2.30
2018-05-28T17:12:07.571Z,2.33
2018-05-28T17:14:35.049Z,2.53
2018-05-28T17:17:03.304Z,2.37
2018-05-28T17:19:30.788Z,2.13
2018-05-28T17:21:59.848Z,2.43
2018-05-28T17:24:27.436Z,2.80
2018-05-28T17:26:55.692Z,2.53
2018-05-28T17:29:23.179Z,2.60
2018-05-28T17:31:51.440Z,2.70
2018-05-28T17:34:19.709Z,2.00
2018-05-28T17:36:47.989Z,2.83
2018-05-28T17:39:16.960Z,3.10
2018-05-28T17:41:44.691Z,2.40
2018-05-28T17:44:13.744Z,2.87
2018-05-28T17:46:42.023Z,2.40
2018-05-28T17:49:10.269Z,2.80
2018-05-28T17:51:37.851Z,2.80
2018-05-28T17:54:06.096Z,2.80
2018-05-28T17:56:33.837Z,2.80
2018-05-28T17:59:01.319Z,4.57
2018-05-28T18:01:29.028Z,2.97
2018-05-28T18:03:56.576Z,2.43
2018-05-28T18:06:24.836Z,3.03
2018-05-28T18:08:52.552Z,2.37
2018-05-28T18:11:20.316Z,4.20
2018-05-28T18:13:48.076Z,2.87
2018-05-28T18:16:15.569Z,3.07
2018-05-28T18:18:43.812Z,5.80
2018-05-28T18:21:11.576Z,12.50
2018-05-28T18:23:39.251Z,12.93
2018-05-28T18:26:06.864Z,9.83
2018-05-28T18:28:34.492Z,6.17
2018-05-28T18:31:01.953Z,5.30
2018-05-28T18:33:29.428Z,6.13
2018-05-28T18:35:57.711Z,13.27
2018-05-28T18:38:25.964Z,10.47
2018-05-28T18:40:53.456Z,6.93
2018-05-28T18:43:20.990Z,5.87
2018-05-28T18:45:49.273Z,9.50
2018-05-28T18:48:17.744Z,5.37
2018-05-28T18:50:46.276Z,6.90
2018-05-28T18:53:13.748Z,6.13
2018-05-28T18:55:41.596Z,4.50
2018-05-28T18:58:09.075Z,4.47
2018-05-28T19:00:36.564Z,4.80
2018-05-28T19:03:04.821Z,4.50
2018-05-28T19:05:32.312Z,3.27
2018-05-28T19:08:00.560Z,3.83
2018-05-28T19:10:28.131Z,3.70
2018-05-28T19:12:56.424Z,2.63
2018-05-28T19:15:24.727Z,2.73
2018-05-28T19:17:52.364Z,2.20
2018-05-28T19:20:19.883Z,2.33
2018-05-28T19:22:47.358Z,2.70
2018-05-28T19:25:15.615Z,2.87
2018-05-28T19:27:43.204Z,2.30
2018-05-28T19:30:11.468Z,2.97
2018-05-28T19:32:39.004Z,2.20
2018-05-28T19:35:06.492Z,3.57
2018-05-28T19:37:34.735Z,2.37
2018-05-28T19:40:02.229Z,2.33
2018-05-28T19:42:30.471Z,2.80
2018-05-28T19:44:57.963Z,3.33
2018-05-28T19:47:26.481Z,2.77
2018-05-28T19:49:54.040Z,4.00
2018-05-28T19:52:21.559Z,2.97
2018-05-28T19:54:49.867Z,2.63
2018-05-28T19:57:17.344Z,3.10
2018-05-28T19:59:44.882Z,2.97
2018-05-28T20:02:12.360Z,2.60
2018-05-28T20:04:39.889Z,3.40
2018-05-28T20:07:07.372Z,2.43
2018-05-28T20:09:34.883Z,3.27
2018-05-28T20:12:03.399Z,2.37
2018-05-28T20:14:30.888Z,2.97
2018-05-28T20:16:58.619Z,2.57
2018-05-28T20:19:26.132Z,3.43
2018-05-28T20:21:54.409Z,2.53
2018-05-28T20:24:22.668Z,3.10
2018-05-28T20:26:50.388Z,3.50
2018-05-28T20:29:17.903Z,2.93
2018-05-28T20:31:45.612Z,3.23
2018-05-28T20:34:13.108Z,2.77
2018-05-28T20:36:40.580Z,3.03
2018-05-28T20:39:08.875Z,3.30
2018-05-28T20:41:37.116Z,2.80
2018-05-28T20:44:04.705Z,3.00
2018-05-28T20:46:32.979Z,3.30
2018-05-28T20:49:01.251Z,2.60
2018-05-28T20:51:29.492Z,3.00
2018-05-28T20:53:56.979Z,2.60
2018-05-28T20:56:25.224Z,2.60
2018-05-28T20:58:53.067Z,2.70
2018-05-28T21:01:20.544Z,2.60
2018-05-28T21:03:48.136Z,3.20
2018-05-28T21:06:16.380Z,3.03
2018-05-28T21:08:45.399Z,3.70
2018-05-28T21:11:13.212Z,3.63
2018-05-28T21:13:40.703Z,3.50
2018-05-28T21:16:08.180Z,3.83
2018-05-28T21:18:36.439Z,2.73
2018-05-28T21:21:04.140Z,3.00
2018-05-28T21:23:31.686Z,2.80
2018-05-28T21:25:59.927Z,2.60
2018-05-28T21:28:27.512Z,2.90
2018-05-28T21:30:55.756Z,2.73
2018-05-28T21:33:23.248Z,3.17
2018-05-28T21:35:51.495Z,3.07
2018-05-28T21:38:18.983Z,3.20
2018-05-28T21:40:47.240Z,2.60
2018-05-28T21:43:14.820Z,2.50
2018-05-28T21:45:43.340Z,3.00
2018-05-28T21:48:10.837Z,3.10
2018-05-28T21:50:38.556Z,2.30
2018-05-28T21:53:06.028Z,3.10
2018-05-28T21:55:33.524Z,2.83
2018-05-28T21:58:01.000Z,2.50
2018-05-28T22:00:29.244Z,2.23
2018-05-28T22:02:58.246Z,2.73
2018-05-28T22:05:25.816Z,2.87
2018-05-28T22:07:54.056Z,2.50
2018-05-28T22:10:21.797Z,2.50
2018-05-28T22:12:49.269Z,3.20
2018-05-28T22:15:16.964Z,1.80
2018-05-28T22:17:44.460Z,1.97
2018-05-28T22:20:11.935Z,2.07
2018-05-28T22:22:39.412Z,3.03
2018-05-28T22:25:06.908Z,2.43
2018-05-28T22:27:35.175Z,1.73
2018-05-28T22:30:03.417Z,2.23
2018-05-28T22:32:30.907Z,2.40
2018-05-28T22:34:59.162Z,2.00
2018-05-28T22:37:28.160Z,2.67
2018-05-28T22:39:55.651Z,2.87
2018-05-28T22:42:23.132Z,2.80
2018-05-28T22:44:50.682Z,3.07
2018-05-28T22:47:18.400Z,3.27
2018-05-28T22:49:46.688Z,3.27
2018-05-28T22:52:15.159Z,2.30
2018-05-28T22:54:42.656Z,2.83
2018-05-28T22:57:10.131Z,2.07
2018-05-28T22:59:37.643Z,3.53
2018-05-28T23:02:06.170Z,2.73
2018-05-28T23:04:33.647Z,2.90
2018-05-28T23:07:01.120Z,2.37
2018-05-28T23:09:28.616Z,3.53
2018-05-28T23:11:56.157Z,3.00
2018-05-28T23:14:24.432Z,3.13
2018-05-28T23:16:52.692Z,3.27
2018-05-28T23:19:20.511Z,3.23
2018-05-28T23:21:48.208Z,2.67
2018-05-28T23:24:16.472Z,3.10
2018-05-28T23:26:44.213Z,2.77
2018-05-28T23:29:11.688Z,4.07
2018-05-28T23:31:39.196Z,3.57
2018-05-28T23:34:07.464Z,3.20
2018-05-28T23:36:35.707Z,3.40
2018-05-28T23:39:03.204Z,2.63
2018-05-28T23:41:31.716Z,3.80
2018-05-28T23:43:59.203Z,3.87
2018-05-28T23:46:26.935Z,3.00
2018-05-28T23:48:54.452Z,3.10
2018-05-28T23:51:22.693Z,3.93
2018-05-28T23:53:50.192Z,3.90
2018-05-28T23:56:18.432Z,3.60
2018-05-28T23:58:45.920Z,2.80
